עמוד ראשי
METAR-TAF:

METAR-TAF

שדות תעופה :

נמל התעופה הבינלאומי הוניארה

הוניארה, גוודלקנל, איי שלמה

קו רוחב: 09-25S, קו אורך: 160-03E, גובה: 8מטר

תצפית מזג אוויר נוכחית

הדו"ח נערך לפני 5 שעות ו 12דקות, בשעה 07:00 UTC
רוח 4קשר מכיוון מזרח/דרום-מזרח
טמפרטורת 28 צלסיוס
לחות 79%
לחץ 1009 hPa
ראות 10 קילומטר או יותר
עננים פזורים בגובה 1600רגל
מעט עננים בגובה 1800רגל , קומולונימבוס.
עננים בינוניים בגובה 3200רגל

METAR: AGGH 150700Z 11004KT 9999 SCT016 FEW018CB BKN032 28/24 Q1009

זמן: 23:12 (12:12 UTC)

תחזית

הדו"ח נערך לפני 12 שעות ו 57דקות, בשעה 23:15 UTC
תחזית בתוקף מ 15 ב 00 UTC עד 15 ב 24 UTC
רוח 12קשר מכיוון מזרח
ראות 10 קילומטר או יותר
מעט עננים בגובה 1800רגל
עננים פזורים בגובה 3000רגל
עננים בינוניים בגובה 10000רגל
הסתברות 40%
בין IN ו TEUTC
ראות: 1010מטר
עננים בינוניים בגובה 1500רגל
מעט עננים בגובה 1600רגל , קומולונימבוס.
סופת רעמים, גשם,

TAF: AGGH 142315Z 1500/1524 09012KT 9999 FEW018 SCT030 BKN100 PROB40 INTER 1500/1506 5000 TSRA BKN015 FEW016CB T 29 30 30 28 Q 1011 1009 1008 1010 TAF3

תצפיות ותחזיות מזג אוויר לגבי יותר מ- 4,000 שדות תעופה ברחבי העולם. דוחות METAR ו- TAF.

התחנות הזמינות מסומנות בנקודות צהובות ואדומות על גבי המפה.

העבר את העכבר לנקודה הצבעונית על מנת לראות את שם התחנה.

לאחר מכן, לחץ כדי לראות את תוכן ואת תחזיות מזג האוויר.

כדי לשנות את המפה: לחץ על הכפתורים הירוקים עם הפלוס השחור כדי להתקרב; על הכפתור הירוק עם המקף כדי להתרחק; או בחיצים הירוקים למפות סמוכות.


METAR-TAF: